Time;durP1;ratioP1;P1;durP2;ratioP2;P2;SDS_P1;SDS_P2;PMS_P1;PMS_P2;Temp;Humidity;BMP_temperature;BMP_pressure;BME280_temperature;BME280_humidity;BME280_pressure;Samples;Min_cycle;Max_cycle;Signal;HPM_P1;HPM_P2
2024/02/14 00:01:39;;;;;;;5.80;4.50;;;6.80;99.90;;;;;;5037601;28;20561;-59
2024/02/14 00:04:07;;;;;;;5.60;3.90;;;6.80;99.90;;;;;;5037908;28;20854;-59
2024/02/14 00:06:37;;;;;;;5.00;3.93;;;6.70;99.90;;;;;;5036751;28;21217;-59
2024/02/14 00:09:06;;;;;;;6.00;3.80;;;6.70;99.90;;;;;;5037137;28;20462;-59
2024/02/14 00:11:34;;;;;;;4.77;3.70;;;6.70;99.90;;;;;;5037631;28;20857;-59
2024/02/14 00:14:04;;;;;;;4.30;3.90;;;6.70;99.90;;;;;;5036695;28;20478;-60
2024/02/14 00:16:32;;;;;;;4.03;3.70;;;6.70;99.90;;;;;;5038021;28;20498;-60
2024/02/14 00:19:00;;;;;;;3.87;3.53;;;6.70;99.90;;;;;;5037930;28;20474;-59
2024/02/14 00:21:28;;;;;;;4.30;3.93;;;6.70;99.90;;;;;;5037129;28;20479;-59
2024/02/14 00:23:58;;;;;;;4.03;3.63;;;6.70;99.90;;;;;;5038598;28;20499;-60
2024/02/14 00:26:26;;;;;;;3.63;3.33;;;6.70;99.90;;;;;;5037447;28;20548;-60
2024/02/14 00:28:54;;;;;;;4.90;3.50;;;6.70;99.90;;;;;;5036548;28;20585;-60
2024/02/14 00:31:24;;;;;;;3.83;3.43;;;6.60;99.90;;;;;;5036619;28;20588;-59
2024/02/14 00:33:52;;;;;;;4.23;3.50;;;6.60;99.90;;;;;;5037425;28;20532;-60
2024/02/14 00:36:20;;;;;;;4.30;3.70;;;6.60;99.90;;;;;;5038410;28;20578;-60
2024/02/14 00:38:48;;;;;;;4.13;3.60;;;6.60;99.90;;;;;;5037046;28;20463;-59
2024/02/14 00:41:16;;;;;;;4.10;3.70;;;6.60;99.90;;;;;;5036946;28;20467;-59
2024/02/14 00:43:44;;;;;;;4.30;3.70;;;6.50;99.90;;;;;;5035942;28;20469;-60
2024/02/14 00:46:17;;;;;;;3.80;3.50;;;6.50;99.90;;;;;;5036909;28;20581;-60
2024/02/14 00:48:46;;;;;;;4.03;3.73;;;6.50;99.90;;;;;;5037657;28;20475;-59
2024/02/14 00:51:14;;;;;;;3.57;3.27;;;6.50;99.90;;;;;;5037249;28;20856;-59
2024/02/14 00:53:43;;;;;;;4.37;3.37;;;6.50;99.90;;;;;;5037308;28;20520;-59
2024/02/14 00:56:11;;;;;;;5.80;3.37;;;6.50;99.90;;;;;;5034114;28;20495;-59
2024/02/14 00:58:39;;;;;;;5.80;4.10;;;6.50;99.90;;;;;;5033966;28;20554;-58
2024/02/14 01:01:07;;;;;;;3.43;3.13;;;6.50;99.90;;;;;;5035852;28;20482;-59
2024/02/14 01:03:35;;;;;;;4.00;3.60;;;6.50;99.90;;;;;;5038117;28;21005;-59
2024/02/14 01:06:04;;;;;;;3.77;3.47;;;6.50;99.90;;;;;;5030322;28;20498;-59
2024/02/14 01:08:33;;;;;;;3.30;3.10;;;6.50;99.90;;;;;;5035861;28;20471;-59
2024/02/14 01:11:01;;;;;;;5.53;3.93;;;6.40;99.90;;;;;;5034778;28;20479;-59
2024/02/14 01:13:29;;;;;;;4.67;3.33;;;6.50;99.90;;;;;;5037199;28;21035;-62
2024/02/14 01:15:57;;;;;;;3.40;3.20;;;6.40;99.90;;;;;;5036685;28;20521;-61
2024/02/14 01:18:25;;;;;;;3.67;3.27;;;6.40;99.90;;;;;;5037378;28;20474;-61
2024/02/14 01:20:54;;;;;;;3.60;3.30;;;6.40;99.90;;;;;;5036056;28;20757;-60
2024/02/14 01:23:23;;;;;;;4.47;3.17;;;6.40;99.90;;;;;;5038361;28;21069;-62
2024/02/14 01:25:51;;;;;;;3.93;3.53;;;6.40;99.90;;;;;;5034837;28;21095;-62
2024/02/14 01:28:19;;;;;;;3.80;3.50;;;6.40;99.90;;;;;;5036744;28;20491;-61
2024/02/14 01:30:47;;;;;;;5.73;3.90;;;6.40;99.90;;;;;;5034038;28;20478;-62
2024/02/14 01:33:16;;;;;;;3.57;3.27;;;6.40;99.90;;;;;;5037349;28;20554;-61
2024/02/14 01:35:44;;;;;;;4.20;3.80;;;6.40;99.90;;;;;;5036839;28;21062;-61
2024/02/14 01:38:13;;;;;;;4.00;3.60;;;6.40;99.90;;;;;;5035283;28;20493;-61
2024/02/14 01:40:45;;;;;;;3.80;3.40;;;6.40;99.90;;;;;;5037371;28;20956;-61
2024/02/14 01:43:14;;;;;;;5.83;3.50;;;6.30;99.90;;;;;;5041248;28;20521;-61
2024/02/14 01:45:43;;;;;;;4.40;4.00;;;6.30;99.90;;;;;;5040765;28;21298;-61
2024/02/14 01:48:11;;;;;;;4.63;4.20;;;6.30;99.90;;;;;;5039859;28;20575;-61
2024/02/14 01:50:40;;;;;;;3.90;3.53;;;6.30;99.90;;;;;;5040141;28;20565;-60
2024/02/14 01:53:09;;;;;;;3.87;3.57;;;6.20;99.90;;;;;;5040345;28;20553;-62
2024/02/14 01:55:37;;;;;;;3.77;3.33;;;6.20;99.90;;;;;;5041697;28;20517;-61
2024/02/14 01:58:06;;;;;;;5.20;2.93;;;6.20;99.90;;;;;;5038716;28;20468;-61
2024/02/14 02:00:35;;;;;;;3.87;3.47;;;6.20;99.90;;;;;;5039096;28;20501;-61
2024/02/14 02:03:04;;;;;;;4.00;3.50;;;6.20;99.90;;;;;;5039626;28;20966;-62
2024/02/14 02:05:33;;;;;;;4.17;3.87;;;6.20;99.90;;;;;;5040176;28;20478;-62
2024/02/14 02:08:02;;;;;;;4.77;3.53;;;6.20;99.90;;;;;;5041552;28;20521;-62
2024/02/14 02:10:30;;;;;;;5.63;3.97;;;6.20;99.90;;;;;;5040208;28;20583;-61
2024/02/14 02:13:01;;;;;;;3.50;3.20;;;6.10;99.90;;;;;;5038675;28;20553;-61
2024/02/14 02:15:30;;;;;;;5.70;3.63;;;6.10;99.90;;;;;;5039805;28;20548;-60
2024/02/14 02:17:59;;;;;;;5.40;3.70;;;6.10;99.90;;;;;;5039109;28;20466;-61
2024/02/14 02:20:28;;;;;;;4.07;3.77;;;6.10;99.90;;;;;;5038469;28;20478;-61
2024/02/14 02:22:58;;;;;;;3.67;3.37;;;6.10;99.90;;;;;;5039773;28;20516;-61
2024/02/14 02:25:26;;;;;;;5.63;4.00;;;6.10;99.90;;;;;;5039814;28;20482;-61
2024/02/14 02:27:57;;;;;;;3.70;3.30;;;6.10;99.90;;;;;;5038697;28;20502;-61
2024/02/14 02:30:27;;;;;;;4.13;3.73;;;6.00;99.90;;;;;;5038139;28;20979;-61
2024/02/14 02:32:55;;;;;;;3.97;3.63;;;6.00;99.90;;;;;;5038263;28;21009;-61
2024/02/14 02:35:24;;;;;;;3.77;3.47;;;6.10;99.90;;;;;;5040367;28;20841;-62
2024/02/14 02:37:52;;;;;;;4.07;3.17;;;6.10;99.90;;;;;;5038431;28;20487;-62
2024/02/14 02:40:22;;;;;;;3.57;3.27;;;6.00;99.90;;;;;;5041198;28;20582;-62
2024/02/14 02:42:50;;;;;;;4.20;3.80;;;6.10;99.90;;;;;;5038125;28;21023;-62
2024/02/14 02:45:18;;;;;;;5.37;4.00;;;6.00;99.90;;;;;;5038691;28;20471;-62
2024/02/14 02:47:47;;;;;;;4.20;3.87;;;6.00;99.90;;;;;;5037949;28;20618;-62
2024/02/14 02:50:16;;;;;;;4.87;4.03;;;6.00;99.90;;;;;;5037952;28;20479;-62
2024/02/14 02:52:44;;;;;;;4.90;4.40;;;6.00;99.90;;;;;;5038651;28;20544;-62
2024/02/14 02:55:12;;;;;;;4.80;4.30;;;6.00;99.90;;;;;;5040312;28;20566;-61
2024/02/14 02:57:43;;;;;;;4.73;4.33;;;6.00;99.90;;;;;;5036667;28;20518;-62
2024/02/14 03:00:13;;;;;;;4.00;3.70;;;6.00;99.90;;;;;;5040240;28;20558;-61
2024/02/14 03:02:44;;;;;;;5.20;4.70;;;6.00;99.90;;;;;;5037858;28;20475;-61
2024/02/14 03:05:17;;;;;;;6.17;5.40;;;6.00;99.90;;;;;;5036910;28;20497;-61
2024/02/14 03:07:47;;;;;;;5.70;4.67;;;5.90;99.90;;;;;;5038136;28;20487;-62
2024/02/14 03:10:17;;;;;;;5.20;4.10;;;5.90;99.90;;;;;;5039443;28;20471;-61
2024/02/14 03:12:48;;;;;;;5.40;4.63;;;5.90;99.90;;;;;;5037911;28;20477;-61
2024/02/14 03:15:16;;;;;;;4.80;4.40;;;5.90;99.90;;;;;;5034597;28;20903;-61
2024/02/14 03:17:45;;;;;;;5.57;4.53;;;5.90;99.90;;;;;;5039258;28;20547;-64
2024/02/14 03:20:16;;;;;;;5.77;4.67;;;5.90;99.90;;;;;;5040119;28;20830;-63
2024/02/14 03:22:46;;;;;;;5.10;4.70;;;5.90;99.90;;;;;;5038874;28;20502;-63
2024/02/14 03:25:17;;;;;;;5.53;4.43;;;5.90;99.90;;;;;;5036861;28;20478;-64
2024/02/14 03:27:47;;;;;;;6.83;5.00;;;5.90;99.90;;;;;;5038227;28;20560;-63
2024/02/14 03:30:17;;;;;;;4.60;4.20;;;5.90;99.90;;;;;;5038271;28;20471;-63
2024/02/14 03:32:46;;;;;;;4.57;4.17;;;5.90;99.90;;;;;;5036773;28;20924;-64
2024/02/14 03:35:15;;;;;;;7.20;4.97;;;5.90;99.90;;;;;;5036333;28;21703;-64
2024/02/14 03:37:47;;;;;;;5.10;4.70;;;5.90;99.90;;;;;;5039254;28;20505;-64
2024/02/14 03:40:16;;;;;;;6.67;5.73;;;5.90;99.90;;;;;;5037397;28;20503;-64
2024/02/14 03:42:44;;;;;;;5.23;4.83;;;5.90;99.90;;;;;;5034335;28;20486;-64
2024/02/14 03:45:12;;;;;;;5.57;5.00;;;5.90;99.90;;;;;;5036260;28;20466;-64
2024/02/14 03:47:42;;;;;;;5.83;5.33;;;5.90;99.90;;;;;;5032421;28;20497;-64
2024/02/14 03:50:10;;;;;;;5.03;4.50;;;5.90;99.90;;;;;;5037102;28;20470;-64
2024/02/14 03:52:38;;;;;;;5.97;4.97;;;5.90;99.90;;;;;;5034988;28;20479;-65
2024/02/14 03:55:08;;;;;;;5.00;4.60;;;5.90;99.90;;;;;;5036361;28;20471;-63
2024/02/14 03:57:38;;;;;;;4.93;4.53;;;5.90;99.90;;;;;;5036170;28;20528;-63
2024/02/14 04:00:10;;;;;;;5.27;4.80;;;5.90;99.90;;;;;;5034737;28;21029;-61
2024/02/14 04:02:39;;;;;;;5.30;4.80;;;5.90;99.90;;;;;;5035650;28;20980;-61
2024/02/14 04:05:14;;;;;;;5.30;4.90;;;5.80;99.90;;;;;;5036180;28;20891;-61
2024/02/14 04:07:44;;;;;;;5.60;4.70;;;5.80;99.90;;;;;;5035901;28;22173;-61
2024/02/14 04:10:13;;;;;;;5.30;4.80;;;5.80;99.90;;;;;;5037341;28;20832;-61
2024/02/14 04:12:41;;;;;;;5.20;4.70;;;5.80;99.90;;;;;;5036999;28;20678;-61
2024/02/14 04:15:10;;;;;;;5.80;4.50;;;5.80;99.90;;;;;;5035571;28;20470;-61
2024/02/14 04:17:38;;;;;;;6.43;5.07;;;5.80;99.90;;;;;;5036849;28;20494;-62
2024/02/14 04:20:07;;;;;;;4.93;4.47;;;5.80;99.90;;;;;;5036166;28;20883;-62
2024/02/14 04:22:36;;;;;;;5.83;4.97;;;5.80;99.90;;;;;;5036745;28;20637;-64
2024/02/14 04:25:05;;;;;;;5.43;4.97;;;5.70;99.90;;;;;;5037505;28;20498;-64
2024/02/14 04:27:33;;;;;;;5.60;5.10;;;5.70;99.90;;;;;;5036894;28;21105;-63
2024/02/14 04:30:02;;;;;;;5.23;4.67;;;5.80;99.90;;;;;;5036161;28;20565;-64
2024/02/14 04:32:30;;;;;;;5.23;4.73;;;5.70;99.90;;;;;;5038553;28;20482;-64
2024/02/14 04:34:59;;;;;;;6.00;4.87;;;5.70;99.90;;;;;;5037030;28;20475;-64
2024/02/14 04:37:27;;;;;;;6.40;5.20;;;5.70;99.90;;;;;;5037475;28;20482;-63
2024/02/14 04:39:57;;;;;;;5.43;4.93;;;5.70;99.90;;;;;;5035896;28;20507;-63
2024/02/14 04:42:25;;;;;;;5.60;5.00;;;5.70;99.90;;;;;;5035431;28;20525;-64
2024/02/14 04:44:53;;;;;;;5.57;5.00;;;5.70;99.90;;;;;;5036675;28;21028;-63
2024/02/14 04:47:21;;;;;;;6.40;5.50;;;5.70;99.90;;;;;;5034456;28;20548;-63
2024/02/14 04:49:51;;;;;;;5.20;4.70;;;5.70;99.90;;;;;;5037362;28;20471;-64
2024/02/14 04:52:19;;;;;;;5.60;5.07;;;5.70;99.90;;;;;;5037527;28;20518;-63
2024/02/14 04:54:47;;;;;;;6.10;5.50;;;5.70;99.90;;;;;;5037168;28;20550;-64
2024/02/14 04:57:18;;;;;;;6.23;5.43;;;5.70;99.90;;;;;;5036882;28;20856;-64
2024/02/14 04:59:46;;;;;;;5.97;4.83;;;5.70;99.90;;;;;;5036296;28;20467;-64
2024/02/14 05:02:14;;;;;;;5.83;5.27;;;5.70;99.90;;;;;;5037399;28;20537;-64
2024/02/14 05:04:42;;;;;;;6.30;5.00;;;5.70;99.90;;;;;;5037725;28;21014;-64
2024/02/14 05:07:10;;;;;;;6.10;5.50;;;5.70;99.90;;;;;;5035677;28;20544;-65
2024/02/14 05:09:38;;;;;;;4.70;4.30;;;5.70;99.90;;;;;;5037713;28;20475;-64
2024/02/14 05:12:10;;;;;;;6.10;5.37;;;5.70;99.90;;;;;;5034859;28;21004;-64
2024/02/14 05:14:40;;;;;;;5.40;4.93;;;5.70;99.90;;;;;;5037265;28;20499;-64
2024/02/14 05:17:08;;;;;;;5.30;4.80;;;5.70;99.90;;;;;;5038089;28;20501;-63
2024/02/14 05:19:36;;;;;;;5.87;5.20;;;5.70;99.90;;;;;;5037283;28;20467;-64
2024/02/14 05:22:05;;;;;;;5.77;5.17;;;5.70;99.90;;;;;;5035349;28;20470;-64
2024/02/14 05:24:33;;;;;;;6.30;5.70;;;5.70;99.90;;;;;;5037162;28;21011;-64
2024/02/14 05:27:01;;;;;;;6.50;5.83;;;5.70;99.90;;;;;;5035479;28;20506;-64
2024/02/14 05:29:28;;;;;;;6.60;5.90;;;5.70;99.90;;;;;;5035509;28;20477;-65
2024/02/14 05:31:58;;;;;;;6.33;5.73;;;5.70;99.90;;;;;;5033257;28;20497;-64
2024/02/14 05:34:26;;;;;;;6.40;5.80;;;5.70;99.90;;;;;;5034824;28;20573;-63
2024/02/14 05:36:54;;;;;;;6.50;5.90;;;5.70;99.90;;;;;;5034866;28;20495;-63
2024/02/14 05:39:22;;;;;;;7.13;6.43;;;5.70;99.90;;;;;;5031340;28;20479;-61
2024/02/14 05:41:50;;;;;;;7.10;6.40;;;5.70;99.90;;;;;;5031173;28;20502;-63
2024/02/14 05:44:18;;;;;;;7.10;6.40;;;5.70;99.90;;;;;;5034596;28;20559;-63
2024/02/14 05:46:46;;;;;;;6.70;5.87;;;5.70;99.90;;;;;;5033624;28;20532;-64
2024/02/14 05:49:15;;;;;;;6.50;5.90;;;5.70;99.90;;;;;;5034258;28;20468;-63
2024/02/14 05:51:43;;;;;;;6.87;6.10;;;5.80;99.90;;;;;;5031735;28;21352;-64
2024/02/14 05:54:11;;;;;;;7.40;6.20;;;5.80;99.90;;;;;;5030854;28;20578;-63
2024/02/14 05:56:40;;;;;;;7.60;6.90;;;5.80;99.90;;;;;;5035616;28;20483;-64
2024/02/14 05:59:08;;;;;;;7.20;6.50;;;5.80;99.90;;;;;;5035236;28;20475;-63
2024/02/14 06:01:36;;;;;;;7.37;6.67;;;5.80;99.90;;;;;;5033637;28;20574;-63
2024/02/14 06:04:04;;;;;;;7.50;6.70;;;5.80;99.90;;;;;;5031168;28;20465;-64
2024/02/14 06:06:34;;;;;;;7.10;6.40;;;5.80;99.90;;;;;;5035696;28;20509;-64
2024/02/14 06:09:08;;;;;;;7.30;6.50;;;5.80;99.90;;;;;;5034641;28;20562;-65
2024/02/14 06:11:38;;;;;;;8.23;7.20;;;5.80;99.90;;;;;;5024525;28;20487;-64
2024/02/14 06:14:07;;;;;;;7.27;6.57;;;5.80;99.90;;;;;;5025145;28;20483;-65
2024/02/14 06:16:35;;;;;;;7.57;6.77;;;5.90;99.90;;;;;;5024496;28;20490;-64
2024/02/14 06:19:04;;;;;;;9.87;7.10;;;5.90;99.90;;;;;;5023666;28;20550;-64
2024/02/14 06:21:34;;;;;;;7.50;6.80;;;5.90;99.90;;;;;;5030248;28;20499;-66
2024/02/14 06:24:03;;;;;;;7.43;6.73;;;5.90;99.90;;;;;;5032593;28;20680;-65
2024/02/14 06:26:33;;;;;;;7.63;6.93;;;5.90;99.90;;;;;;5036388;28;20490;-64
2024/02/14 06:29:02;;;;;;;7.10;6.40;;;5.90;99.90;;;;;;5035405;28;20491;-65
2024/02/14 06:31:33;;;;;;;7.83;7.13;;;5.90;99.90;;;;;;5036351;28;20539;-65
2024/02/14 06:34:01;;;;;;;7.90;7.20;;;6.00;99.90;;;;;;5034036;28;20487;-64
2024/02/14 06:36:29;;;;;;;7.20;6.50;;;6.00;99.90;;;;;;5039298;28;21116;-64
2024/02/14 06:38:58;;;;;;;8.27;7.47;;;6.00;99.90;;;;;;5036084;28;20473;-64
2024/02/14 06:41:27;;;;;;;8.70;6.97;;;6.00;99.90;;;;;;5038407;28;20496;-65
2024/02/14 06:43:54;;;;;;;7.00;6.27;;;6.00;99.90;;;;;;5033023;28;20504;-64
2024/02/14 06:46:22;;;;;;;7.17;6.57;;;6.00;99.90;;;;;;5034718;28;20589;-65
2024/02/14 06:48:50;;;;;;;7.10;6.50;;;6.00;99.90;;;;;;5036979;28;20546;-65
2024/02/14 06:51:20;;;;;;;7.10;6.37;;;6.10;99.90;;;;;;5034959;28;21026;-62
2024/02/14 06:53:48;;;;;;;7.57;6.50;;;6.10;99.90;;;;;;5036590;28;20522;-62
2024/02/14 06:56:17;;;;;;;7.60;6.87;;;6.10;99.90;;;;;;5039167;28;20513;-62
2024/02/14 06:58:46;;;;;;;7.03;6.43;;;6.10;99.90;;;;;;5037618;28;20989;-61
2024/02/14 07:01:15;;;;;;;7.13;6.20;;;6.10;99.90;;;;;;5036867;28;20482;-62
2024/02/14 07:03:45;;;;;;;7.47;6.37;;;6.10;99.90;;;;;;5039797;28;21952;-62
2024/02/14 07:06:13;;;;;;;8.10;6.60;;;6.20;99.90;;;;;;5039346;28;20514;-62
2024/02/14 07:08:41;;;;;;;7.20;6.20;;;6.20;99.90;;;;;;5037113;28;20971;-64
2024/02/14 07:11:09;;;;;;;7.13;6.50;;;6.20;99.90;;;;;;5035140;28;20479;-60
2024/02/14 07:13:39;;;;;;;7.00;6.40;;;6.20;99.90;;;;;;5037779;28;20884;-61
2024/02/14 07:16:07;;;;;;;7.30;6.30;;;6.20;99.90;;;;;;5037277;28;20576;-61
2024/02/14 07:18:38;;;;;;;6.97;6.30;;;6.20;99.90;;;;;;5037233;28;20898;-61
2024/02/14 07:21:07;;;;;;;7.57;6.87;;;6.20;99.90;;;;;;5038676;28;20865;-61
2024/02/14 07:23:35;;;;;;;8.57;6.93;;;6.20;99.90;;;;;;5038278;28;20459;-61
2024/02/14 07:26:02;;;;;;;7.33;6.63;;;6.20;99.90;;;;;;5038051;28;20548;-61
2024/02/14 07:28:32;;;;;;;8.10;7.40;;;6.30;99.90;;;;;;5039292;28;21083;-61
2024/02/14 07:31:01;;;;;;;8.07;7.33;;;6.30;99.90;;;;;;5038686;28;20511;-61
2024/02/14 07:33:29;;;;;;;8.20;7.40;;;6.30;99.90;;;;;;5038441;28;20494;-63
2024/02/14 07:35:57;;;;;;;9.77;7.60;;;6.30;99.90;;;;;;5039571;28;20577;-61
2024/02/14 07:38:25;;;;;;;8.50;7.73;;;6.30;99.90;;;;;;5039151;28;21504;-62
2024/02/14 07:40:53;;;;;;;7.57;6.87;;;6.30;99.90;;;;;;5037239;28;20629;-62
2024/02/14 07:43:21;;;;;;;8.07;7.37;;;6.30;99.90;;;;;;5039721;28;21065;-62
2024/02/14 07:45:50;;;;;;;8.10;7.30;;;6.30;99.90;;;;;;5038081;28;20904;-62
2024/02/14 07:48:19;;;;;;;8.70;7.80;;;6.40;99.90;;;;;;5037982;28;21195;-61
2024/02/14 07:50:47;;;;;;;8.57;7.50;;;6.30;99.90;;;;;;5029149;28;20610;-62
2024/02/14 07:53:15;;;;;;;7.77;7.07;;;6.40;99.90;;;;;;5037571;28;20482;-61
2024/02/14 07:55:43;;;;;;;8.10;7.30;;;6.40;99.90;;;;;;5039144;28;20576;-62
2024/02/14 07:58:12;;;;;;;7.50;6.80;;;6.40;99.90;;;;;;5038560;28;20499;-62
2024/02/14 08:00:40;;;;;;;8.20;7.20;;;6.40;99.90;;;;;;5035922;28;20471;-62
2024/02/14 08:03:08;;;;;;;8.73;7.60;;;6.40;99.90;;;;;;5038381;28;20540;-62
2024/02/14 08:05:38;;;;;;;8.77;7.87;;;6.40;99.90;;;;;;5038885;28;20471;-61
2024/02/14 08:08:06;;;;;;;8.33;7.30;;;6.50;99.90;;;;;;5038938;28;20494;-61
2024/02/14 08:10:34;;;;;;;7.70;7.00;;;6.50;99.90;;;;;;5037034;28;20562;-63
2024/02/14 08:13:04;;;;;;;9.17;7.73;;;6.50;99.90;;;;;;5033549;28;21060;-61
2024/02/14 08:15:32;;;;;;;8.13;7.40;;;6.60;99.90;;;;;;5038356;28;20486;-62
2024/02/14 08:18:00;;;;;;;8.17;7.47;;;6.60;99.90;;;;;;5037711;28;20470;-61
2024/02/14 08:20:37;;;;;;;7.73;7.03;;;6.60;99.90;;;;;;5036906;28;21771;-62
2024/02/14 08:23:05;;;;;;;7.67;6.97;;;6.60;99.90;;;;;;5039880;28;20471;-63
2024/02/14 08:25:33;;;;;;;8.00;7.20;;;6.60;99.90;;;;;;5039605;28;20462;-63
2024/02/14 08:28:02;;;;;;;8.07;7.27;;;6.60;99.90;;;;;;5036470;28;21046;-62
2024/02/14 08:30:30;;;;;;;8.30;7.33;;;6.60;99.90;;;;;;5037027;28;20477;-62
2024/02/14 08:32:59;;;;;;;7.90;7.10;;;6.70;99.90;;;;;;5039137;28;20470;-62
2024/02/14 08:35:29;;;;;;;9.00;7.30;;;6.70;99.90;;;;;;5037275;28;20486;-61
2024/02/14 08:37:59;;;;;;;10.37;7.47;;;6.70;99.90;;;;;;5038898;28;20493;-62
2024/02/14 08:40:27;;;;;;;7.93;7.07;;;6.70;99.90;;;;;;5038222;28;20561;-62
2024/02/14 08:42:55;;;;;;;6.83;6.23;;;6.70;99.90;;;;;;5039321;28;20561;-62
2024/02/14 08:45:23;;;;;;;8.07;7.27;;;6.80;99.90;;;;;;5038303;28;20514;-61
2024/02/14 08:47:51;;;;;;;7.97;7.27;;;6.80;99.90;;;;;;5039086;28;20533;-61
2024/02/14 08:50:19;;;;;;;7.43;6.57;;;6.80;99.90;;;;;;5038726;28;20774;-61
2024/02/14 08:52:47;;;;;;;8.13;6.53;;;6.80;99.90;;;;;;5037148;28;20977;-61
2024/02/14 08:55:18;;;;;;;8.17;7.00;;;6.90;99.90;;;;;;5039139;28;20522;-61
2024/02/14 08:57:47;;;;;;;7.20;6.50;;;6.90;99.90;;;;;;5036877;28;20522;-62
2024/02/14 09:00:19;;;;;;;6.50;5.90;;;6.90;99.90;;;;;;5034601;28;20475;-63
2024/02/14 09:02:48;;;;;;;6.90;6.20;;;6.90;99.90;;;;;;5033997;28;20870;-63
2024/02/14 09:05:18;;;;;;;6.10;5.50;;;7.00;99.90;;;;;;5038391;28;20459;-62
2024/02/14 09:07:46;;;;;;;6.13;5.53;;;7.00;99.90;;;;;;5039387;28;20518;-62
2024/02/14 09:10:15;;;;;;;7.10;6.40;;;7.10;99.90;;;;;;5038687;28;20522;-62
2024/02/14 09:12:44;;;;;;;6.23;5.63;;;7.10;99.90;;;;;;5032833;28;20573;-62
2024/02/14 09:15:12;;;;;;;6.50;5.90;;;7.10;99.90;;;;;;5037306;28;20504;-63
2024/02/14 09:17:41;;;;;;;6.57;5.97;;;7.20;99.90;;;;;;5036755;28;20851;-62
2024/02/14 09:20:11;;;;;;;5.93;5.33;;;7.20;99.90;;;;;;5037904;28;20471;-62
2024/02/14 09:22:41;;;;;;;6.33;5.60;;;7.20;99.90;;;;;;5033991;28;20479;-62
2024/02/14 09:25:09;;;;;;;6.23;5.50;;;7.30;99.90;;;;;;5035677;28;20545;-62
2024/02/14 09:27:38;;;;;;;6.77;6.17;;;7.30;99.90;;;;;;5035950;28;20490;-61
2024/02/14 09:30:08;;;;;;;6.30;5.80;;;7.30;99.90;;;;;;5035015;28;20552;-63
2024/02/14 09:32:45;;;;;;;7.03;6.43;;;7.30;99.90;;;;;;5033322;28;20585;-62
2024/02/14 09:35:13;;;;;;;6.43;5.83;;;7.40;99.90;;;;;;5036054;28;20483;-61
2024/02/14 09:37:41;;;;;;;6.83;6.23;;;7.40;99.90;;;;;;5036295;28;20491;-61
2024/02/14 09:40:12;;;;;;;6.63;6.00;;;7.40;99.90;;;;;;5036983;28;20845;-62
2024/02/14 09:42:45;;;;;;;7.60;6.27;;;7.50;99.90;;;;;;5035489;28;20486;-63
2024/02/14 09:45:16;;;;;;;6.73;6.03;;;7.50;99.90;;;;;;5038001;28;20496;-62
2024/02/14 09:47:50;;;;;;;7.20;6.50;;;7.60;99.90;;;;;;5036888;28;20502;-62
2024/02/14 09:50:20;;;;;;;6.80;6.10;;;7.60;99.90;;;;;;5035412;28;20473;-62
2024/02/14 09:52:49;;;;;;;7.10;6.40;;;7.60;99.90;;;;;;5035239;28;20573;-62
2024/02/14 09:55:17;;;;;;;8.20;7.00;;;7.60;99.90;;;;;;5036579;28;20576;-62
2024/02/14 09:57:47;;;;;;;6.43;5.83;;;7.70;99.90;;;;;;5036059;28;20491;-62
2024/02/14 10:00:17;;;;;;;6.30;5.70;;;7.70;99.90;;;;;;5037187;28;20503;-62
2024/02/14 10:02:46;;;;;;;7.60;6.87;;;7.80;99.90;;;;;;5037878;28;20486;-61
2024/02/14 10:05:14;;;;;;;7.27;5.80;;;7.90;99.90;;;;;;5038755;28;20888;-62
2024/02/14 10:07:42;;;;;;;5.70;5.13;;;7.90;99.90;;;;;;5039869;28;20492;-63
2024/02/14 10:10:11;;;;;;;7.53;5.70;;;7.90;99.90;;;;;;5043808;28;20572;-61
2024/02/14 10:12:41;;;;;;;5.63;5.03;;;8.00;99.90;;;;;;5038984;28;20570;-61
2024/02/14 10:15:10;;;;;;;5.67;5.17;;;8.00;99.90;;;;;;5041357;28;20580;-62
2024/02/14 10:17:41;;;;;;;6.07;4.17;;;8.10;99.90;;;;;;5038572;28;20521;-62
2024/02/14 10:20:11;;;;;;;4.53;4.13;;;8.10;99.90;;;;;;5039562;28;20467;-62
2024/02/14 10:22:40;;;;;;;4.97;4.50;;;8.20;99.90;;;;;;5039494;28;20490;-62
2024/02/14 10:25:09;;;;;;;4.80;4.40;;;8.20;99.90;;;;;;5041859;28;20959;-62
2024/02/14 10:27:38;;;;;;;4.93;4.47;;;8.30;99.90;;;;;;5038476;28;20511;-62
2024/02/14 10:30:09;;;;;;;4.27;3.87;;;8.40;99.90;;;;;;5039823;28;20629;-62
2024/02/14 10:32:38;;;;;;;4.73;4.33;;;8.40;99.90;;;;;;5040247;28;20586;-61
2024/02/14 10:35:11;;;;;;;4.20;3.80;;;8.50;99.90;;;;;;5039793;28;20505;-62
2024/02/14 10:37:40;;;;;;;4.40;4.00;;;8.60;99.90;;;;;;5038524;28;20702;-61
2024/02/14 10:40:09;;;;;;;4.47;4.03;;;8.60;99.90;;;;;;5039859;28;20471;-62
2024/02/14 10:42:37;;;;;;;4.40;4.00;;;8.60;99.90;;;;;;5039009;28;20594;-63
2024/02/14 10:45:07;;;;;;;4.70;4.30;;;8.70;99.90;;;;;;5036188;28;21035;-62
2024/02/14 10:47:36;;;;;;;5.30;4.80;;;8.70;99.90;;;;;;5038719;28;20537;-61
2024/02/14 10:50:09;;;;;;;5.13;4.70;;;8.70;99.90;;;;;;5037535;28;20466;-62
2024/02/14 10:52:39;;;;;;;5.13;4.73;;;8.80;99.90;;;;;;5037291;28;20479;-62
2024/02/14 10:55:09;;;;;;;4.77;4.37;;;8.90;99.90;;;;;;5039833;28;20494;-62
2024/02/14 10:57:39;;;;;;;7.17;6.20;;;9.00;99.90;;;;;;5035621;28;20583;-61
2024/02/14 11:00:13;;;;;;;4.73;4.33;;;9.00;99.90;;;;;;5039230;28;20573;-62
2024/02/14 11:02:42;;;;;;;4.53;4.13;;;9.00;99.90;;;;;;5038957;28;20474;-61
2024/02/14 11:05:15;;;;;;;4.00;3.70;;;9.00;99.90;;;;;;5038679;28;20474;-61
2024/02/14 11:07:47;;;;;;;4.10;3.80;;;9.10;99.90;;;;;;5035664;28;20489;-61
2024/02/14 11:10:16;;;;;;;4.30;3.70;;;9.10;99.90;;;;;;5037088;28;20482;-62
2024/02/14 11:12:45;;;;;;;4.33;3.67;;;9.10;99.90;;;;;;5037603;28;20585;-62
2024/02/14 11:15:18;;;;;;;4.10;3.70;;;9.20;99.90;;;;;;5040894;28;20564;-62
2024/02/14 11:17:48;;;;;;;4.27;3.80;;;9.20;99.90;;;;;;5038524;28;20498;-62
2024/02/14 11:20:20;;;;;;;4.43;4.03;;;9.30;99.90;;;;;;5041254;28;20977;-62
2024/02/14 11:22:54;;;;;;;4.37;3.97;;;9.30;99.90;;;;;;5036942;28;20475;-63
2024/02/14 11:25:29;;;;;;;3.80;3.47;;;9.30;99.90;;;;;;5040387;28;20551;-61
2024/02/14 11:27:58;;;;;;;5.43;4.00;;;9.40;99.90;;;;;;5039359;28;20601;-62
2024/02/14 11:30:32;;;;;;;4.60;4.20;;;9.40;99.90;;;;;;5038234;28;20569;-62
2024/02/14 11:33:20;;;;;;;4.60;4.20;;;9.40;99.90;;;;;;5038059;28;20489;-62
2024/02/14 11:35:51;;;;;;;5.20;4.70;;;9.40;99.90;;;;;;5039073;28;20570;-61
2024/02/14 11:38:20;;;;;;;4.03;3.60;;;9.50;99.90;;;;;;5037986;28;20905;-61
2024/02/14 11:40:49;;;;;;;5.20;4.70;;;9.50;99.90;;;;;;5037775;28;20983;-60
2024/02/14 11:43:18;;;;;;;5.20;4.70;;;9.50;99.90;;;;;;5039134;28;20469;-62
2024/02/14 11:45:49;;;;;;;4.70;4.30;;;9.60;99.90;;;;;;5038589;28;20463;-61
2024/02/14 11:48:19;;;;;;;5.13;4.10;;;9.60;99.90;;;;;;5037447;28;21092;-62
2024/02/14 11:50:48;;;;;;;4.50;4.10;;;9.60;99.90;;;;;;5036159;28;21487;-62
2024/02/14 11:53:18;;;;;;;4.60;4.20;;;9.70;99.90;;;;;;5037234;28;20965;-63
2024/02/14 11:55:47;;;;;;;5.30;4.80;;;9.80;99.90;;;;;;5037479;28;20514;-62
2024/02/14 11:58:17;;;;;;;5.37;4.67;;;9.80;99.90;;;;;;5039267;28;20496;-63
2024/02/14 12:00:47;;;;;;;4.70;4.30;;;9.90;99.90;;;;;;5036814;28;20566;-63
2024/02/14 12:03:17;;;;;;;4.60;4.20;;;9.90;99.90;;;;;;5038109;28;20516;-62
2024/02/14 12:05:47;;;;;;;4.27;3.97;;;9.90;99.90;;;;;;5036522;28;20463;-62
2024/02/14 12:08:18;;;;;;;4.90;4.40;;;10.00;99.90;;;;;;5038248;28;20550;-62
2024/02/14 12:10:49;;;;;;;5.43;4.90;;;10.00;99.90;;;;;;5038005;28;20486;-62
2024/02/14 12:13:20;;;;;;;4.63;4.23;;;10.00;99.90;;;;;;5037215;28;20475;-61
2024/02/14 12:15:50;;;;;;;5.50;5.00;;;10.10;99.90;;;;;;5037875;28;20596;-62
2024/02/14 12:18:20;;;;;;;5.37;4.87;;;10.10;99.90;;;;;;5039108;28;20479;-62
2024/02/14 12:20:50;;;;;;;4.60;4.20;;;10.10;99.90;;;;;;5036117;28;20517;-61
2024/02/14 12:23:27;;;;;;;4.60;4.20;;;10.10;99.90;;;;;;5038825;28;20563;-62
2024/02/14 12:25:55;;;;;;;5.33;4.83;;;10.20;99.90;;;;;;5029462;28;20549;-62
2024/02/14 12:28:24;;;;;;;6.33;4.97;;;10.20;99.90;;;;;;5036881;28;20487;-63
2024/02/14 12:30:56;;;;;;;5.43;4.93;;;10.20;99.90;;;;;;5033901;28;20477;-62
2024/02/14 12:33:25;;;;;;;5.87;4.83;;;10.20;99.90;;;;;;5035732;28;20490;-63
2024/02/14 12:35:56;;;;;;;4.77;4.30;;;10.30;99.90;;;;;;5028682;28;20545;-62
2024/02/14 12:38:25;;;;;;;5.50;5.00;;;10.30;99.90;;;;;;5037619;28;20498;-62
2024/02/14 12:40:54;;;;;;;5.53;4.93;;;10.40;99.90;;;;;;5033446;28;20478;-63
2024/02/14 12:43:22;;;;;;;4.40;4.10;;;10.40;99.90;;;;;;5037705;28;20565;-62
2024/02/14 12:45:50;;;;;;;5.67;4.70;;;10.40;99.90;;;;;;5036525;28;21074;-62
2024/02/14 12:48:26;;;;;;;6.60;5.60;;;10.40;99.90;;;;;;5037744;28;20542;-61
2024/02/14 12:50:55;;;;;;;6.53;5.20;;;10.40;99.90;;;;;;5034117;28;20566;-62
2024/02/14 12:53:25;;;;;;;5.10;4.60;;;10.50;99.90;;;;;;5038665;28;20481;-62
2024/02/14 12:55:53;;;;;;;5.77;5.17;;;10.50;99.90;;;;;;5037961;28;21047;-62
2024/02/14 12:58:21;;;;;;;6.30;5.50;;;10.60;99.90;;;;;;5038064;28;20477;-62
2024/02/14 13:00:49;;;;;;;6.23;5.00;;;10.60;99.90;;;;;;5036777;28;20583;-62
2024/02/14 13:03:18;;;;;;;5.37;4.87;;;10.60;99.90;;;;;;5038367;28;20555;-62
2024/02/14 13:05:47;;;;;;;6.20;5.57;;;10.60;99.90;;;;;;5034886;28;20912;-62